Time;durP1;ratioP1;P1;durP2;ratioP2;P2;SDS_P1;SDS_P2;PMS_P1;PMS_P2;Temp;Humidity;BMP_temperature;BMP_pressure;BME280_temperature;BME280_humidity;BME280_pressure;Samples;Min_cycle;Max_cycle;Signal;HPM_P1;HPM_P2
2021/03/09 01:04:33;;;;;;;27.92;19.98;;;;;;;;;;5041837;28;20036;-86
2021/03/09 01:08:22;;;;;;;25.88;20.33;;;;;;;;;;5019112;28;20057;-87
2021/03/09 01:17:09;;;;;;;26.42;20.30;;;;;;;;;;5412456;22;20052;-85
2021/03/09 01:20:09;;;;;;;24.63;20.27;;;;;;;;;;5062435;28;20040;-85
2021/03/09 01:22:41;;;;;;;24.63;19.67;;;;;;;;;;5090115;28;20032;-86
2021/03/09 01:25:25;;;;;;;25.33;20.10;;;;;;;;;;5076170;28;20040;-85
2021/03/09 01:28:00;;;;;;;27.30;21.52;;;;;;;;;;5064057;28;20037;-85
2021/03/09 01:31:04;;;;;;;28.23;20.67;;;;;;;;;;5041758;28;20033;-84
2021/03/09 01:38:01;;;;;;;27.42;21.58;;;;;;;;;;4977368;28;20064;-86
2021/03/09 01:41:03;;;;;;;26.17;22.20;;;;;;;;;;4980037;28;20041;-84
2021/03/09 01:43:54;;;;;;;26.65;20.98;;;;;;;;;;4989025;28;20018;-84
2021/03/09 01:47:34;;;;;;;25.90;21.23;;;;;;;;;;5002986;28;20019;-85
2021/03/09 01:50:39;;;;;;;25.17;20.98;;;;;;;;;;4954680;28;21045;-85
2021/03/09 01:53:35;;;;;;;25.67;22.02;;;;;;;;;;4957739;29;20043;-86
2021/03/09 01:56:52;;;;;;;25.83;21.67;;;;;;;;;;4949156;29;20020;-86
2021/03/09 02:00:20;;;;;;;32.33;25.95;;;;;;;;;;4956346;29;20042;-85
2021/03/09 02:04:02;;;;;;;25.97;21.33;;;;;;;;;;4920364;29;20036;-85
2021/03/09 02:07:11;;;;;;;27.40;22.48;;;;;;;;;;4926737;29;20284;-85
2021/03/09 02:10:43;;;;;;;30.85;23.08;;;;;;;;;;4940548;29;20049;-86
2021/03/09 02:14:15;;;;;;;26.92;22.35;;;;;;;;;;4938938;29;20044;-87
2021/03/09 02:21:39;;;;;;;27.33;22.35;;;;;;;;;;4878823;29;20110;-86
2021/03/09 02:25:17;;;;;;;28.50;22.80;;;;;;;;;;4860329;29;20042;-85
2021/03/09 02:28:17;;;;;;;29.88;22.75;;;;;;;;;;4839271;29;20029;-86
2021/03/09 02:34:22;;;;;;;27.50;22.73;;;;;;;;;;3796108;26;20079;-86
2021/03/09 02:37:37;;;;;;;25.98;22.65;;;;;;;;;;5092378;28;20032;-85
2021/03/09 02:40:17;;;;;;;27.15;22.92;;;;;;;;;;5088869;28;20032;-86
2021/03/09 02:43:35;;;;;;;25.83;22.10;;;;;;;;;;5094481;28;20032;-86
2021/03/09 02:46:32;;;;;;;27.30;22.90;;;;;;;;;;5057547;28;20024;-86
2021/03/09 02:49:10;;;;;;;30.85;22.42;;;;;;;;;;5056493;28;20033;-86
2021/03/09 02:51:42;;;;;;;27.40;22.17;;;;;;;;;;5018252;28;20041;-85
2021/03/09 02:54:37;;;;;;;25.52;22.70;;;;;;;;;;5034271;28;20064;-84
2021/03/09 02:57:46;;;;;;;28.95;23.00;;;;;;;;;;5051122;28;20025;-87
2021/03/09 03:00:57;;;;;;;26.52;22.23;;;;;;;;;;4997833;28;20033;-85
2021/03/09 03:03:31;;;;;;;27.55;23.50;;;;;;;;;;5015697;28;20052;-86
2021/03/09 03:06:31;;;;;;;27.38;22.88;;;;;;;;;;5013709;28;20038;-85
2021/03/09 03:09:28;;;;;;;28.55;23.27;;;;;;;;;;4978083;28;20129;-84
2021/03/09 03:12:25;;;;;;;24.90;21.55;;;;;;;;;;4993084;28;20035;-85
2021/03/09 03:16:06;;;;;;;26.13;22.48;;;;;;;;;;4990285;28;20037;-85
2021/03/09 03:18:53;;;;;;;27.15;22.08;;;;;;;;;;4976915;28;20074;-86
2021/03/09 03:22:08;;;;;;;25.33;22.00;;;;;;;;;;4976114;29;20039;-85
2021/03/09 03:25:07;;;;;;;26.02;22.70;;;;;;;;;;4976414;29;20031;-86
2021/03/09 03:27:57;;;;;;;28.17;22.75;;;;;;;;;;4956721;29;20451;-86
2021/03/09 03:31:03;;;;;;;26.88;22.08;;;;;;;;;;4963667;29;20027;-87
2021/03/09 03:34:29;;;;;;;24.98;21.52;;;;;;;;;;4944617;29;20083;-87
2021/03/09 03:37:05;;;;;;;29.08;22.92;;;;;;;;;;5011059;28;20046;-84
2021/03/09 03:40:09;;;;;;;28.70;23.35;;;;;;;;;;4990924;28;20027;-85
2021/03/09 03:43:08;;;;;;;26.15;22.55;;;;;;;;;;5013483;28;20142;-86
2021/03/09 03:45:40;;;;;;;27.50;22.88;;;;;;;;;;4999205;28;20056;-86
2021/03/09 03:48:52;;;;;;;26.48;23.23;;;;;;;;;;5000591;28;20022;-86
2021/03/09 03:51:55;;;;;;;27.05;22.88;;;;;;;;;;4993963;28;20042;-86
2021/03/09 03:58:35;;;;;;;29.35;23.17;;;;;;;;;;4916783;28;20110;-85
2021/03/09 04:01:35;;;;;;;28.33;23.38;;;;;;;;;;4996050;28;20031;-86
2021/03/09 04:04:20;;;;;;;27.10;22.63;;;;;;;;;;4974375;28;20038;-86
2021/03/09 04:07:37;;;;;;;27.35;23.35;;;;;;;;;;4926128;29;20032;-86
2021/03/09 04:10:55;;;;;;;28.60;23.27;;;;;;;;;;4925667;29;20036;-86
2021/03/09 04:13:37;;;;;;;25.50;21.85;;;;;;;;;;4918209;29;20115;-86
2021/03/09 04:16:47;;;;;;;30.37;24.27;;;;;;;;;;4914023;29;20048;-85
2021/03/09 04:19:21;;;;;;;29.35;23.27;;;;;;;;;;4937571;29;20276;-85
2021/03/09 04:22:11;;;;;;;24.98;22.25;;;;;;;;;;4952486;29;20044;-87
2021/03/09 04:24:55;;;;;;;27.42;22.63;;;;;;;;;;4918854;29;20119;-86
2021/03/09 04:27:51;;;;;;;28.52;22.95;;;;;;;;;;4940116;29;20077;-87
2021/03/09 04:30:51;;;;;;;26.88;23.02;;;;;;;;;;4970923;28;20050;-87
2021/03/09 04:33:19;;;;;;;27.65;23.90;;;;;;;;;;4990949;28;20038;-86
2021/03/09 04:35:51;;;;;;;28.08;22.52;;;;;;;;;;5007919;28;20112;-85
2021/03/09 04:38:21;;;;;;;25.95;23.10;;;;;;;;;;4992660;28;20397;-85
2021/03/09 04:40:54;;;;;;;26.63;22.83;;;;;;;;;;4993019;28;20122;-86
2021/03/09 04:43:22;;;;;;;29.92;22.98;;;;;;;;;;5006388;28;20058;-86
2021/03/09 04:46:33;;;;;;;27.55;22.58;;;;;;;;;;5061979;28;20058;-86
2021/03/09 04:49:24;;;;;;;27.92;23.30;;;;;;;;;;5081470;28;20032;-86
2021/03/09 04:52:18;;;;;;;27.35;23.13;;;;;;;;;;5097272;28;20025;-86
2021/03/09 04:55:08;;;;;;;27.67;23.17;;;;;;;;;;5046190;28;20131;-86
2021/03/09 04:58:23;;;;;;;30.08;23.75;;;;;;;;;;5077797;28;20040;-86
2021/03/09 05:01:19;;;;;;;28.92;24.80;;;;;;;;;;5059504;28;20047;-86
2021/03/09 05:04:06;;;;;;;26.92;23.40;;;;;;;;;;5086965;28;20049;-86
2021/03/09 05:06:57;;;;;;;27.48;24.38;;;;;;;;;;5050627;28;20056;-86
2021/03/09 05:09:25;;;;;;;;;;;;;;;;;;5075700;28;20089;-86
2021/03/09 05:11:58;;;;;;;27.05;22.83;;;;;;;;;;5075287;28;19908;-86
2021/03/09 05:14:54;;;;;;;26.30;22.63;;;;;;;;;;5075220;28;20067;-86
2021/03/09 05:17:55;;;;;;;29.33;22.83;;;;;;;;;;5073697;28;20059;-86
2021/03/09 05:20:58;;;;;;;27.35;24.27;;;;;;;;;;5067854;28;20036;-86
2021/03/09 05:23:59;;;;;;;27.23;23.73;;;;;;;;;;5111642;28;20020;-84
2021/03/09 05:27:11;;;;;;;28.38;24.33;;;;;;;;;;5093676;28;20032;-84
2021/03/09 05:30:04;;;;;;;26.60;23.55;;;;;;;;;;5074718;28;20202;-84
2021/03/09 05:32:56;;;;;;;26.63;23.08;;;;;;;;;;5091638;28;20033;-85
2021/03/09 05:36:06;;;;;;;27.10;22.80;;;;;;;;;;5061068;28;20051;-84
2021/03/09 05:39:31;;;;;;;27.23;23.83;;;;;;;;;;5055832;28;20079;-85
2021/03/09 05:42:47;;;;;;;27.88;23.73;;;;;;;;;;5075070;28;20037;-84
2021/03/09 05:45:38;;;;;;;29.15;23.55;;;;;;;;;;5057460;28;20033;-84
2021/03/09 05:48:25;;;;;;;24.67;22.00;;;;;;;;;;5055462;28;20029;-84
2021/03/09 05:50:55;;;;;;;26.45;22.95;;;;;;;;;;5048648;28;20042;-83
2021/03/09 05:53:21;;;;;;;26.65;23.23;;;;;;;;;;5008213;28;20099;-83
2021/03/09 05:55:52;;;;;;;27.30;23.35;;;;;;;;;;5036718;28;20053;-83
2021/03/09 05:58:21;;;;;;;26.67;23.77;;;;;;;;;;5061479;28;20041;-83
2021/03/09 06:00:51;;;;;;;28.98;24.40;;;;;;;;;;5053385;28;20049;-84
2021/03/09 06:03:31;;;;;;;28.98;24.75;;;;;;;;;;5071322;28;20032;-83
2021/03/09 06:06:05;;;;;;;30.52;24.33;;;;;;;;;;5036697;28;20844;-83
2021/03/09 06:08:46;;;;;;;26.65;23.70;;;;;;;;;;5055071;28;20032;-83
2021/03/09 06:11:18;;;;;;;25.85;23.02;;;;;;;;;;5069908;28;20029;-84
2021/03/09 06:13:56;;;;;;;27.13;23.70;;;;;;;;;;5068672;28;20064;-83
2021/03/09 06:16:22;;;;;;;27.90;23.92;;;;;;;;;;5044219;28;20032;-82
2021/03/09 06:19:08;;;;;;;27.23;23.70;;;;;;;;;;5024837;28;20037;-83
2021/03/09 06:21:35;;;;;;;32.38;24.45;;;;;;;;;;5055728;28;20072;-83
2021/03/09 06:24:17;;;;;;;27.52;23.95;;;;;;;;;;5072210;28;20037;-83
2021/03/09 06:26:56;;;;;;;29.02;24.70;;;;;;;;;;5047891;28;20041;-82
2021/03/09 06:29:33;;;;;;;29.88;23.90;;;;;;;;;;5036046;28;20407;-83
2021/03/09 06:32:12;;;;;;;26.48;23.67;;;;;;;;;;5059225;28;20037;-83
2021/03/09 06:34:38;;;;;;;27.38;23.77;;;;;;;;;;5073006;28;20096;-82
2021/03/09 06:37:13;;;;;;;29.70;24.05;;;;;;;;;;5066731;28;20055;-83
2021/03/09 06:40:10;;;;;;;30.60;25.02;;;;;;;;;;5060942;28;20096;-83
2021/03/09 06:42:52;;;;;;;36.33;27.20;;;;;;;;;;4964709;29;20047;-82
2021/03/09 06:45:21;;;;;;;35.40;26.92;;;;;;;;;;4983969;28;20041;-83
2021/03/09 06:47:52;;;;;;;32.58;27.38;;;;;;;;;;5002760;28;20038;-82
2021/03/09 06:50:34;;;;;;;30.27;25.98;;;;;;;;;;4960566;28;20034;-82
2021/03/09 06:53:34;;;;;;;32.88;26.13;;;;;;;;;;4992255;28;20039;-83
2021/03/09 06:56:33;;;;;;;31.20;26.02;;;;;;;;;;4976036;28;20034;-83
2021/03/09 06:59:24;;;;;;;32.17;26.90;;;;;;;;;;4974101;28;20026;-83
2021/03/09 07:02:29;;;;;;;31.25;26.15;;;;;;;;;;4987033;28;20051;-84
2021/03/09 07:05:03;;;;;;;33.90;27.70;;;;;;;;;;4971517;29;20039;-83
2021/03/09 07:07:45;;;;;;;35.05;28.98;;;;;;;;;;4971315;28;20081;-83
2021/03/09 07:10:26;;;;;;;41.70;29.90;;;;;;;;;;4990867;28;20026;-83
2021/03/09 07:12:58;;;;;;;33.30;28.58;;;;;;;;;;4957724;29;20035;-82
2021/03/09 07:15:28;;;;;;;32.53;25.08;;;;;;;;;;4972197;29;20050;-82
2021/03/09 07:17:55;;;;;;;32.85;25.33;;;;;;;;;;4972090;29;20035;-82
2021/03/09 07:20:26;;;;;;;33.35;24.23;;;;;;;;;;5025909;28;20035;-82
2021/03/09 07:22:56;;;;;;;29.83;24.73;;;;;;;;;;5071558;28;20119;-83
2021/03/09 07:25:26;;;;;;;28.58;23.30;;;;;;;;;;5070579;28;20044;-82
2021/03/09 07:28:11;;;;;;;31.55;25.52;;;;;;;;;;5043451;28;20045;-83
2021/03/09 07:30:45;;;;;;;28.08;23.35;;;;;;;;;;5037106;28;20056;-84
2021/03/09 07:33:23;;;;;;;27.70;23.83;;;;;;;;;;5037111;28;20032;-82
2021/03/09 07:35:56;;;;;;;27.63;23.77;;;;;;;;;;5069862;28;20067;-81
2021/03/09 07:38:22;;;;;;;30.75;24.70;;;;;;;;;;5036923;28;20100;-82
2021/03/09 07:40:51;;;;;;;30.23;23.92;;;;;;;;;;5065850;28;20051;-82
2021/03/09 07:43:20;;;;;;;51.25;39.55;;;;;;;;;;5066501;28;20049;-81
2021/03/09 07:45:50;;;;;;;27.15;24.25;;;;;;;;;;5032103;28;20060;-83
2021/03/09 07:48:25;;;;;;;27.13;23.60;;;;;;;;;;5069909;28;20085;-82
2021/03/09 07:50:53;;;;;;;32.40;24.83;;;;;;;;;;5052754;28;20033;-82
2021/03/09 07:53:22;;;;;;;27.02;24.00;;;;;;;;;;5038206;28;20045;-81
2021/03/09 07:56:14;;;;;;;31.88;25.38;;;;;;;;;;5054734;28;20055;-83
2021/03/09 07:58:44;;;;;;;30.65;25.27;;;;;;;;;;4996241;28;20034;-82
2021/03/09 08:01:15;;;;;;;30.45;27.15;;;;;;;;;;4995583;28;20097;-84
2021/03/09 08:03:47;;;;;;;;;;;;;;;;;;4994565;28;20054;-82
2021/03/09 08:06:22;;;;;;;30.58;24.25;;;;;;;;;;5012761;28;19982;-82
2021/03/09 08:08:59;;;;;;;32.40;24.60;;;;;;;;;;4981672;28;20038;-81
2021/03/09 08:11:40;;;;;;;29.88;24.55;;;;;;;;;;4994805;28;20073;-82
2021/03/09 08:14:33;;;;;;;29.48;24.55;;;;;;;;;;5012283;28;20037;-84
2021/03/09 08:17:01;;;;;;;27.80;22.35;;;;;;;;;;4938247;29;20104;-82
2021/03/09 08:19:51;;;;;;;29.38;24.73;;;;;;;;;;4954466;29;20066;-82
2021/03/09 08:22:16;;;;;;;27.23;23.30;;;;;;;;;;4898740;29;20041;-83
2021/03/09 08:25:05;;;;;;;31.98;26.02;;;;;;;;;;4898320;29;20062;-82
2021/03/09 08:27:38;;;;;;;28.95;25.02;;;;;;;;;;4860729;29;20038;-83
2021/03/09 08:30:36;;;;;;;28.50;24.13;;;;;;;;;;4845877;29;20038;-81
2021/03/09 08:33:29;;;;;;;31.98;25.10;;;;;;;;;;4860419;29;20053;-82
2021/03/09 08:35:56;;;;;;;30.58;24.77;;;;;;;;;;4872361;29;20045;-82
2021/03/09 08:38:23;;;;;;;28.58;24.60;;;;;;;;;;4879328;29;20100;-82
2021/03/09 08:41:04;;;;;;;32.58;25.92;;;;;;;;;;4879239;29;20093;-82
2021/03/09 08:43:35;;;;;;;30.45;26.20;;;;;;;;;;4879357;29;20017;-82
2021/03/09 08:46:07;;;;;;;33.42;24.95;;;;;;;;;;4878101;29;20041;-82
2021/03/09 08:48:52;;;;;;;30.23;25.30;;;;;;;;;;4877368;29;20064;-82
2021/03/09 08:51:44;;;;;;;27.48;23.65;;;;;;;;;;4877509;29;20127;-82
2021/03/09 08:54:37;;;;;;;26.58;23.73;;;;;;;;;;4897422;29;20065;-81
2021/03/09 08:57:39;;;;;;;29.35;23.40;;;;;;;;;;4895742;29;20084;-82
2021/03/09 09:00:14;;;;;;;;;;;;;;;;;;4896798;29;20037;-81
2021/03/09 09:02:49;;;;;;;28.90;22.58;;;;;;;;;;4898512;29;19916;-81
2021/03/09 09:05:15;;;;;;;27.20;22.48;;;;;;;;;;4899385;29;20047;-82
2021/03/09 09:07:45;;;;;;;26.05;21.50;;;;;;;;;;4927339;29;20081;-82
2021/03/09 09:10:18;;;;;;;26.52;22.70;;;;;;;;;;4927269;29;20041;-82
2021/03/09 09:12:54;;;;;;;27.23;23.83;;;;;;;;;;4928627;29;20033;-82
2021/03/09 09:15:31;;;;;;;27.70;23.52;;;;;;;;;;4910510;29;20040;-82
2021/03/09 09:18:00;;;;;;;24.55;21.40;;;;;;;;;;4913830;29;20108;-81
2021/03/09 09:20:40;;;;;;;28.02;22.23;;;;;;;;;;4913323;29;20432;-81
2021/03/09 09:23:30;;;;;;;27.20;22.13;;;;;;;;;;4914288;29;20036;-82
2021/03/09 09:26:00;;;;;;;27.90;20.87;;;;;;;;;;4914496;29;20028;-82
2021/03/09 09:28:38;;;;;;;26.40;21.70;;;;;;;;;;4929221;29;20036;-82
2021/03/09 09:31:19;;;;;;;25.85;21.25;;;;;;;;;;4929003;29;20036;-81
2021/03/09 09:33:59;;;;;;;;;;;;;;;;;;4945733;29;20083;-81
2021/03/09 09:36:25;;;;;;;27.92;21.83;;;;;;;;;;5016050;28;19917;-81
2021/03/09 09:38:53;;;;;;;26.27;20.70;;;;;;;;;;5051932;28;20106;-82
2021/03/09 09:41:20;;;;;;;25.13;21.25;;;;;;;;;;5052866;28;20060;-82
2021/03/09 09:43:49;;;;;;;26.27;21.92;;;;;;;;;;5051352;28;20100;-81
2021/03/09 09:46:19;;;;;;;26.75;21.95;;;;;;;;;;5053187;28;20028;-81
2021/03/09 09:48:44;;;;;;;26.05;20.85;;;;;;;;;;5070069;28;20063;-82
2021/03/09 09:51:30;;;;;;;25.52;21.05;;;;;;;;;;5068766;28;20033;-82
2021/03/09 09:54:09;;;;;;;27.25;21.65;;;;;;;;;;5054099;28;20063;-82
2021/03/09 09:56:38;;;;;;;28.85;20.85;;;;;;;;;;5050478;28;20025;-82
2021/03/09 09:59:19;;;;;;;27.92;21.20;;;;;;;;;;5068955;28;20044;-81
2021/03/09 10:01:50;;;;;;;24.80;20.00;;;;;;;;;;5034727;28;20047;-81
2021/03/09 10:04:20;;;;;;;26.83;20.20;;;;;;;;;;5052261;28;20025;-81
2021/03/09 10:06:49;;;;;;;24.95;21.27;;;;;;;;;;5064284;28;20029;-81
2021/03/09 10:09:24;;;;;;;24.10;19.98;;;;;;;;;;5018899;28;20031;-81
2021/03/09 10:11:54;;;;;;;27.13;19.73;;;;;;;;;;5074220;28;20029;-81
2021/03/09 10:14:23;;;;;;;26.33;20.70;;;;;;;;;;5088019;28;20032;-81
2021/03/09 10:16:50;;;;;;;25.50;19.80;;;;;;;;;;5054344;28;20032;-82
2021/03/09 10:19:32;;;;;;;24.45;19.60;;;;;;;;;;5087133;28;20044;-81
2021/03/09 10:22:00;;;;;;;24.92;20.08;;;;;;;;;;5086569;28;20024;-82
2021/03/09 10:24:31;;;;;;;22.10;19.70;;;;;;;;;;5068329;28;20032;-81
2021/03/09 10:27:00;;;;;;;25.17;19.67;;;;;;;;;;5086730;28;20031;-81
2021/03/09 10:29:27;;;;;;;25.83;17.92;;;;;;;;;;5086633;28;20032;-81
2021/03/09 10:31:58;;;;;;;23.58;18.88;;;;;;;;;;5083395;28;20067;-82
2021/03/09 10:34:55;;;;;;;25.83;19.17;;;;;;;;;;5068642;28;20043;-82
2021/03/09 10:37:37;;;;;;;24.92;19.38;;;;;;;;;;5096007;28;20118;-81
2021/03/09 10:40:09;;;;;;;24.42;20.05;;;;;;;;;;5089676;28;20012;-81
2021/03/09 10:42:43;;;;;;;20.80;18.10;;;;;;;;;;5107332;28;20099;-82
2021/03/09 10:45:20;;;;;;;24.10;19.20;;;;;;;;;;5106570;28;20026;-82
2021/03/09 10:48:07;;;;;;;24.27;18.98;;;;;;;;;;5106563;28;20026;-82
2021/03/09 10:50:41;;;;;;;21.15;18.48;;;;;;;;;;5057849;28;20405;-82
2021/03/09 10:53:07;;;;;;;22.38;16.92;;;;;;;;;;5088220;28;20054;-82
2021/03/09 10:55:32;;;;;;;22.27;17.67;;;;;;;;;;5087724;28;20020;-82
2021/03/09 10:57:58;;;;;;;22.40;17.73;;;;;;;;;;5104860;28;20107;-82
2021/03/09 11:00:27;;;;;;;21.98;17.70;;;;;;;;;;5104101;28;20043;-81
2021/03/09 11:02:53;;;;;;;22.33;18.75;;;;;;;;;;5087989;28;20020;-81
2021/03/09 11:05:20;;;;;;;22.35;18.67;;;;;;;;;;5069956;28;20046;-81
2021/03/09 11:07:48;;;;;;;20.90;17.77;;;;;;;;;;5085945;28;20474;-82
2021/03/09 11:10:16;;;;;;;22.67;17.80;;;;;;;;;;5086951;28;20095;-82
2021/03/09 11:12:42;;;;;;;22.75;18.65;;;;;;;;;;5103840;28;20027;-82
2021/03/09 11:15:10;;;;;;;23.23;19.50;;;;;;;;;;5069166;28;20028;-81
2021/03/09 11:17:39;;;;;;;21.83;18.52;;;;;;;;;;5082959;28;20401;-81
2021/03/09 11:20:05;;;;;;;25.05;19.55;;;;;;;;;;5086947;28;20047;-83
2021/03/09 11:22:34;;;;;;;24.40;20.00;;;;;;;;;;5105518;28;20024;-82
2021/03/09 11:25:00;;;;;;;24.92;19.70;;;;;;;;;;5042722;28;20107;-82
2021/03/09 11:27:26;;;;;;;24.30;19.45;;;;;;;;;;5028256;28;20037;-82
2021/03/09 11:29:51;;;;;;;23.60;19.27;;;;;;;;;;5044471;28;20025;-81
2021/03/09 11:32:17;;;;;;;21.45;18.83;;;;;;;;;;5027819;28;20100;-82
2021/03/09 11:34:44;;;;;;;24.38;19.38;;;;;;;;;;5028165;28;20025;-82
2021/03/09 11:37:21;;;;;;;25.30;20.00;;;;;;;;;;5012336;28;20582;-81
2021/03/09 11:39:47;;;;;;;26.42;19.13;;;;;;;;;;5027940;28;20033;-82
2021/03/09 11:42:13;;;;;;;23.35;20.00;;;;;;;;;;5010378;28;20037;-82
2021/03/09 11:44:39;;;;;;;23.75;20.25;;;;;;;;;;5027950;28;20021;-82
2021/03/09 11:47:05;;;;;;;23.70;20.23;;;;;;;;;;5044142;28;20037;-82
2021/03/09 11:49:31;;;;;;;23.65;19.85;;;;;;;;;;5028376;28;20120;-82
2021/03/09 11:51:56;;;;;;;27.08;21.45;;;;;;;;;;5043259;28;20033;-82
2021/03/09 11:54:29;;;;;;;23.50;19.90;;;;;;;;;;5011836;28;20539;-82
2021/03/09 11:56:55;;;;;;;26.85;20.92;;;;;;;;;;5043338;28;20037;-82
2021/03/09 11:59:22;;;;;;;24.27;19.80;;;;;;;;;;5011844;28;20033;-83
2021/03/09 12:01:47;;;;;;;23.98;20.60;;;;;;;;;;5041952;28;20049;-82
2021/03/09 12:04:25;;;;;;;26.65;20.48;;;;;;;;;;5009802;28;20033;-82
2021/03/09 12:06:53;;;;;;;24.42;20.08;;;;;;;;;;5042870;28;20144;-81
2021/03/09 12:09:21;;;;;;;23.20;20.67;;;;;;;;;;5085166;28;20035;-82
2021/03/09 12:11:48;;;;;;;21.20;18.90;;;;;;;;;;5035115;28;20028;-81
2021/03/09 12:14:14;;;;;;;25.38;20.60;;;;;;;;;;5047711;28;20029;-83
2021/03/09 12:16:40;;;;;;;23.15;20.15;;;;;;;;;;5028497;28;20027;-82
2021/03/09 12:19:05;;;;;;;26.17;20.90;;;;;;;;;;5061914;28;20032;-82
2021/03/09 12:21:31;;;;;;;23.95;19.30;;;;;;;;;;5030266;28;20025;-81
2021/03/09 12:23:57;;;;;;;24.55;20.42;;;;;;;;;;5044021;28;20074;-83
2021/03/09 12:26:25;;;;;;;25.58;19.73;;;;;;;;;;5029815;28;20045;-82
2021/03/09 12:28:54;;;;;;;24.70;19.77;;;;;;;;;;5047540;28;20537;-82
2021/03/09 12:31:23;;;;;;;24.50;19.95;;;;;;;;;;5047304;28;20032;-82
2021/03/09 12:33:51;;;;;;;26.23;20.90;;;;;;;;;;5067263;28;20032;-83
2021/03/09 12:36:17;;;;;;;25.52;20.60;;;;;;;;;;5049794;28;20025;-82
2021/03/09 12:38:47;;;;;;;24.42;20.52;;;;;;;;;;5045524;28;20035;-83
2021/03/09 12:41:14;;;;;;;24.52;21.05;;;;;;;;;;5046852;28;20029;-82
2021/03/09 12:43:41;;;;;;;23.55;19.85;;;;;;;;;;5028653;28;20445;-83
2021/03/09 12:46:06;;;;;;;23.15;20.05;;;;;;;;;;5046419;28;20149;-82
2021/03/09 12:48:37;;;;;;;27.23;19.80;;;;;;;;;;5048092;28;20020;-81
2021/03/09 12:51:03;;;;;;;24.80;19.98;;;;;;;;;;5049816;28;20025;-82
2021/03/09 12:53:30;;;;;;;25.63;20.38;;;;;;;;;;5028904;28;20036;-82
2021/03/09 12:55:58;;;;;;;21.35;19.05;;;;;;;;;;5048654;28;20495;-83
2021/03/09 12:58:23;;;;;;;21.58;18.27;;;;;;;;;;5029968;28;20029;-82
2021/03/09 13:00:52;;;;;;;25.60;19.73;;;;;;;;;;5042862;28;20021;-83
2021/03/09 13:03:18;;;;;;;22.65;18.70;;;;;;;;;;5049300;28;20032;-83
2021/03/09 13:05:50;;;;;;;22.05;18.45;;;;;;;;;;5016637;28;20039;-82
2021/03/09 13:08:18;;;;;;;21.73;18.27;;;;;;;;;;5033719;28;20491;-83
2021/03/09 13:10:44;;;;;;;23.10;19.13;;;;;;;;;;5075794;28;20032;-82
2021/03/09 13:13:14;;;;;;;20.35;17.65;;;;;;;;;;5088831;28;20028;-83
2021/03/09 13:15:48;;;;;;;21.27;17.85;;;;;;;;;;5108237;28;20027;-85
2021/03/09 13:18:25;;;;;;;21.38;17.35;;;;;;;;;;5072419;28;20024;-83
2021/03/09 13:20:58;;;;;;;19.85;17.75;;;;;;;;;;5103938;28;20032;-83
2021/03/09 13:23:33;;;;;;;23.17;18.02;;;;;;;;;;5089475;28;20024;-83
2021/03/09 13:25:59;;;;;;;19.80;17.23;;;;;;;;;;5088015;28;20093;-83
2021/03/09 13:28:26;;;;;;;23.77;19.27;;;;;;;;;;5106313;28;20032;-82
2021/03/09 13:30:54;;;;;;;23.75;19.02;;;;;;;;;;5104274;28;20080;-83
2021/03/09 13:33:21;;;;;;;21.10;18.27;;;;;;;;;;5105775;28;20115;-83
2021/03/09 13:35:55;;;;;;;19.83;17.00;;;;;;;;;;5070074;28;20506;-84
2021/03/09 13:38:23;;;;;;;20.15;15.85;;;;;;;;;;5089887;28;20083;-83
2021/03/09 13:40:58;;;;;;;18.70;15.32;;;;;;;;;;5092393;28;20036;-84
2021/03/09 13:43:28;;;;;;;19.45;16.65;;;;;;;;;;5112115;28;20036;-83
2021/03/09 13:46:00;;;;;;;21.17;17.45;;;;;;;;;;5092464;28;20067;-85
2021/03/09 13:48:28;;;;;;;17.80;15.90;;;;;;;;;;5094348;28;20023;-83
2021/03/09 13:50:59;;;;;;;22.63;16.27;;;;;;;;;;5072287;28;20023;-83
2021/03/09 13:53:30;;;;;;;;;;;;;;;;;;5092976;28;20035;-84
2021/03/09 13:55:58;;;;;;;20.85;16.02;;;;;;;;;;5092947;28;19958;-84
2021/03/09 13:58:30;;;;;;;20.60;16.20;;;;;;;;;;5086246;28;20035;-84
2021/03/09 14:01:11;;;;;;;17.85;14.43;;;;;;;;;;5094467;28;20042;-83
2021/03/09 14:04:15;;;;;;;17.35;13.95;;;;;;;;;;5114796;28;20050;-84
2021/03/09 14:07:30;;;;;;;16.88;13.00;;;;;;;;;;5112899;28;20036;-84
2021/03/09 14:13:21;;;;;;;16.63;13.30;;;;;;;;;;5234422;22;20470;-83
2021/03/09 14:15:46;;;;;;;15.43;13.57;;;;;;;;;;5033788;28;20036;-81
2021/03/09 14:18:13;;;;;;;17.15;13.98;;;;;;;;;;5015591;28;20083;-81
2021/03/09 14:20:43;;;;;;;14.10;11.80;;;;;;;;;;5013997;28;20029;-80
2021/03/09 14:23:11;;;;;;;18.05;11.60;;;;;;;;;;4998750;28;20391;-82
2021/03/09 14:25:40;;;;;;;13.73;11.30;;;;;;;;;;5031989;28;20060;-78
2021/03/09 14:28:13;;;;;;;14.48;11.32;;;;;;;;;;5030752;28;20032;-80
2021/03/09 14:30:39;;;;;;;14.05;11.07;;;;;;;;;;5048101;28;20041;-79
2021/03/09 14:33:08;;;;;;;15.65;11.55;;;;;;;;;;5032770;28;20037;-82
2021/03/09 14:35:44;;;;;;;13.35;11.18;;;;;;;;;;5050987;28;20037;-82
2021/03/09 14:38:51;;;;;;;13.52;11.15;;;;;;;;;;5007204;28;20045;-81
2021/03/09 14:41:39;;;;;;;14.38;10.95;;;;;;;;;;5055120;28;20081;-80
2021/03/09 14:44:27;;;;;;;12.07;10.38;;;;;;;;;;5031867;28;20052;-81
2021/03/09 14:46:55;;;;;;;14.43;11.30;;;;;;;;;;5033293;28;20056;-79
2021/03/09 14:49:32;;;;;;;13.00;11.32;;;;;;;;;;5032314;28;20048;-82
2021/03/09 14:51:58;;;;;;;13.77;11.27;;;;;;;;;;5050053;28;20120;-82
2021/03/09 14:54:25;;;;;;;16.80;11.80;;;;;;;;;;5017508;28;20028;-83
2021/03/09 14:57:04;;;;;;;18.15;11.90;;;;;;;;;;5031621;28;20017;-83
2021/03/09 14:59:32;;;;;;;14.85;11.40;;;;;;;;;;5047292;28;20024;-83
2021/03/09 15:01:57;;;;;;;13.63;10.60;;;;;;;;;;5031314;28;20038;-84
2021/03/09 15:04:27;;;;;;;14.23;10.95;;;;;;;;;;5010890;28;20032;-83
2021/03/09 15:06:53;;;;;;;14.90;11.13;;;;;;;;;;5026243;28;20038;-83
2021/03/09 15:09:19;;;;;;;15.10;11.05;;;;;;;;;;5025654;28;20029;-84
2021/03/09 15:11:46;;;;;;;15.50;10.85;;;;;;;;;;5023239;28;20104;-82
2021/03/09 15:14:13;;;;;;;15.18;10.98;;;;;;;;;;5044226;28;20029;-82
2021/03/09 15:16:38;;;;;;;13.48;10.48;;;;;;;;;;5037881;28;20069;-82
2021/03/09 15:19:04;;;;;;;13.68;11.00;;;;;;;;;;5031257;28;20399;-83
2021/03/09 15:21:30;;;;;;;14.55;10.65;;;;;;;;;;5028728;28;20114;-83
2021/03/09 15:23:57;;;;;;;13.82;9.80;;;;;;;;;;5013918;28;20418;-83
2021/03/09 15:26:22;;;;;;;11.95;8.93;;;;;;;;;;5028792;28;20025;-83
2021/03/09 15:28:48;;;;;;;13.43;8.70;;;;;;;;;;5027627;28;20033;-83
2021/03/09 15:31:13;;;;;;;11.45;8.13;;;;;;;;;;5010924;28;20509;-82
2021/03/09 15:33:39;;;;;;;11.70;8.80;;;;;;;;;;5029096;28;20437;-80
2021/03/09 15:36:06;;;;;;;9.90;8.20;;;;;;;;;;5029997;28;20032;-80
2021/03/09 15:38:33;;;;;;;12.02;8.63;;;;;;;;;;5010831;28;20401;-81
2021/03/09 15:40:59;;;;;;;18.83;8.88;;;;;;;;;;5036484;28;20029;-82
2021/03/09 15:43:25;;;;;;;16.08;9.02;;;;;;;;;;5046684;28;20108;-78
2021/03/09 15:45:51;;;;;;;13.38;9.27;;;;;;;;;;5013483;28;20029;-81
2021/03/09 15:48:22;;;;;;;11.05;9.07;;;;;;;;;;5029186;28;20038;-79
2021/03/09 15:50:47;;;;;;;12.65;9.07;;;;;;;;;;5020825;28;20037;-81
2021/03/09 15:53:13;;;;;;;12.07;9.10;;;;;;;;;;5013086;28;20037;-82
2021/03/09 15:55:39;;;;;;;10.38;8.35;;;;;;;;;;5017038;28;20026;-81
2021/03/09 15:58:06;;;;;;;25.65;10.43;;;;;;;;;;5043443;28;20400;-81
2021/03/09 16:00:31;;;;;;;9.90;7.68;;;;;;;;;;5024403;28;20037;-82
2021/03/09 16:02:57;;;;;;;10.82;7.85;;;;;;;;;;5038746;28;20033;-79
2021/03/09 16:05:22;;;;;;;12.70;8.55;;;;;;;;;;5047599;28;20492;-81
2021/03/09 16:07:49;;;;;;;12.05;8.68;;;;;;;;;;5026961;28;20025;-80
2021/03/09 16:10:17;;;;;;;14.43;9.68;;;;;;;;;;5009496;28;20030;-81
2021/03/09 16:12:43;;;;;;;14.50;9.07;;;;;;;;;;5010933;28;20037;-81
2021/03/09 16:15:11;;;;;;;12.30;9.43;;;;;;;;;;5012737;28;20038;-81
2021/03/09 16:17:37;;;;;;;12.57;9.38;;;;;;;;;;5044850;28;20030;-82
2021/03/09 16:20:08;;;;;;;10.23;8.57;;;;;;;;;;5022093;28;20017;-81
2021/03/09 16:22:34;;;;;;;9.38;6.47;;;;;;;;;;5015065;28;20039;-82
2021/03/09 16:25:02;;;;;;;8.02;6.00;;;;;;;;;;5032283;28;20089;-81
2021/03/09 16:27:30;;;;;;;9.27;6.15;;;;;;;;;;5013629;28;20029;-83
2021/03/09 16:29:56;;;;;;;9.57;6.53;;;;;;;;;;5040208;28;20030;-83
2021/03/09 16:32:21;;;;;;;8.93;7.07;;;;;;;;;;5015156;28;20033;-82
2021/03/09 16:34:47;;;;;;;7.78;6.40;;;;;;;;;;4995235;28;20045;-83
2021/03/09 16:37:12;;;;;;;9.32;8.05;;;;;;;;;;4995767;28;20030;-83
2021/03/09 16:39:38;;;;;;;12.23;9.23;;;;;;;;;;5003272;28;20030;-83
2021/03/09 16:42:04;;;;;;;12.45;9.23;;;;;;;;;;5045492;28;20395;-83
2021/03/09 16:44:29;;;;;;;11.07;9.18;;;;;;;;;;5022252;28;20079;-83
2021/03/09 16:46:55;;;;;;;11.50;9.25;;;;;;;;;;5037708;28;20029;-82
2021/03/09 16:49:29;;;;;;;12.50;9.65;;;;;;;;;;4991635;28;20570;-81
2021/03/09 16:52:11;;;;;;;;;;;;;;;;;;5020132;28;20030;-83
2021/03/09 16:54:37;;;;;;;9.88;8.40;;;;;;;;;;5039350;28;19971;-82
2021/03/09 16:57:03;;;;;;;12.13;8.63;;;;;;;;;;5034292;28;20022;-82